createdAt,value
2023-02-13T00:00:57.517Z,34.50
2023-02-13T00:03:38.824Z,34.27
2023-02-13T00:06:10.973Z,38.17
2023-02-13T00:08:46.952Z,33.63
2023-02-13T00:11:40.009Z,32.47
2023-02-13T00:14:08.537Z,37.00
2023-02-13T00:16:37.214Z,35.67
2023-02-13T00:19:07.702Z,34.33
2023-02-13T00:21:36.067Z,37.73
2023-02-13T00:24:06.621Z,33.97
2023-02-13T00:26:34.871Z,35.73
2023-02-13T00:29:03.189Z,37.20
2023-02-13T00:31:31.727Z,34.23
2023-02-13T00:34:04.529Z,35.27
2023-02-13T00:36:32.762Z,34.43
2023-02-13T00:39:00.933Z,33.97
2023-02-13T00:41:32.972Z,33.10
2023-02-13T00:44:01.170Z,35.03
2023-02-13T00:46:31.333Z,34.47
2023-02-13T00:49:00.271Z,32.83
2023-02-13T00:51:28.513Z,32.93
2023-02-13T00:53:56.702Z,34.30
2023-02-13T00:56:24.995Z,34.77
2023-02-13T00:58:54.805Z,32.10
2023-02-13T01:01:25.702Z,30.00
2023-02-13T01:03:53.987Z,32.83
2023-02-13T01:06:25.233Z,31.83
2023-02-13T01:09:06.618Z,33.70
2023-02-13T01:15:59.015Z,31.03
2023-02-13T01:18:27.721Z,33.07
2023-02-13T01:21:01.252Z,32.07
2023-02-13T01:23:34.663Z,33.50
2023-02-13T01:26:05.262Z,34.60
2023-02-13T01:28:33.792Z,33.90
2023-02-13T01:31:04.057Z,32.30
2023-02-13T01:33:32.453Z,33.13
2023-02-13T01:36:00.800Z,33.37
2023-02-13T01:38:31.706Z,34.07
2023-02-13T01:41:01.151Z,33.70
2023-02-13T01:43:46.628Z,32.77
2023-02-13T01:46:19.763Z,33.40
2023-02-13T01:48:50.749Z,34.80
2023-02-13T01:51:24.527Z,32.90
2023-02-13T01:54:00.895Z,32.07
2023-02-13T01:56:33.596Z,32.57
2023-02-13T01:59:05.452Z,32.00
2023-02-13T02:01:35.906Z,31.50
2023-02-13T02:04:10.619Z,32.70
2023-02-13T02:06:43.682Z,33.57
2023-02-13T02:09:17.969Z,33.77
2023-02-13T02:11:52.565Z,35.13
2023-02-13T02:14:21.848Z,35.77
2023-02-13T02:16:51.620Z,35.73
2023-02-13T02:19:31.882Z,32.43
2023-02-13T02:22:26.360Z,32.57
2023-02-13T02:25:27.233Z,34.90
2023-02-13T02:28:18.854Z,35.93
2023-02-13T02:31:20.489Z,36.20
2023-02-13T02:34:02.805Z,37.87
2023-02-13T02:36:49.937Z,34.43
2023-02-13T02:39:31.185Z,40.17
2023-02-13T02:42:11.060Z,33.83
2023-02-13T02:44:44.664Z,37.03
2023-02-13T02:47:42.331Z,38.33
2023-02-13T02:50:29.534Z,37.40
2023-02-13T02:53:10.735Z,33.37
2023-02-13T02:55:48.143Z,34.23
2023-02-13T02:58:39.878Z,39.93
2023-02-13T03:06:02.180Z,42.33
2023-02-13T03:08:50.411Z,38.00
2023-02-13T03:11:36.524Z,37.30
2023-02-13T03:14:07.293Z,36.60
2023-02-13T03:16:53.012Z,43.67
2023-02-13T03:19:47.169Z,33.77
2023-02-13T03:22:29.860Z,41.93
2023-02-13T03:25:08.980Z,35.13
2023-02-13T03:28:04.728Z,42.53
2023-02-13T03:30:48.857Z,32.80
2023-02-13T03:33:29.593Z,30.13
2023-02-13T03:36:26.704Z,37.30
2023-02-13T03:39:01.426Z,37.53
2023-02-13T03:41:37.329Z,37.50
2023-02-13T03:44:14.818Z,47.60
2023-02-13T03:46:47.038Z,41.40
2023-02-13T03:49:39.884Z,38.67
2023-02-13T03:52:15.540Z,38.27
2023-02-13T03:55:07.410Z,40.20
2023-02-13T03:57:58.772Z,42.43
2023-02-13T04:00:28.839Z,35.53
2023-02-13T04:03:03.987Z,46.90
2023-02-13T04:05:37.798Z,37.83
2023-02-13T04:08:06.243Z,35.40
2023-02-13T04:10:41.755Z,35.47
2023-02-13T04:13:19.533Z,36.33
2023-02-13T04:15:51.973Z,34.40
2023-02-13T04:18:23.711Z,37.20
2023-02-13T04:20:52.207Z,39.47
2023-02-13T04:23:21.054Z,36.07
2023-02-13T04:25:53.779Z,34.60
2023-02-13T04:28:22.369Z,33.97
2023-02-13T04:30:51.154Z,36.77
2023-02-13T04:33:19.498Z,36.70
2023-02-13T04:35:47.854Z,35.30
2023-02-13T04:38:16.178Z,33.87
2023-02-13T04:40:44.753Z,36.17
2023-02-13T04:43:14.574Z,38.70
2023-02-13T04:45:42.886Z,34.53
2023-02-13T04:48:11.775Z,33.43
2023-02-13T04:55:05.675Z,29.63
2023-02-13T04:57:33.956Z,31.67
2023-02-13T05:00:03.670Z,41.60
2023-02-13T05:02:48.825Z,34.10
2023-02-13T05:05:17.455Z,32.27
2023-02-13T05:07:45.706Z,33.23
2023-02-13T05:10:31.406Z,29.87
2023-02-13T05:12:59.911Z,33.23
2023-02-13T05:15:29.721Z,29.20
2023-02-13T05:17:58.049Z,32.90
2023-02-13T05:20:26.612Z,28.70
2023-02-13T05:23:12.828Z,31.63
2023-02-13T05:25:42.884Z,30.10
2023-02-13T05:28:31.488Z,29.30
2023-02-13T05:31:00.687Z,28.93
2023-02-13T05:36:46.287Z,29.20
2023-02-13T05:39:15.301Z,30.07
2023-02-13T05:41:47.451Z,28.60
2023-02-13T05:44:18.904Z,30.13
2023-02-13T05:46:53.288Z,30.33
2023-02-13T05:49:23.002Z,30.00
2023-02-13T05:52:12.405Z,30.17
2023-02-13T05:54:40.723Z,29.53
2023-02-13T05:57:09.123Z,30.10
2023-02-13T05:59:37.297Z,35.63
2023-02-13T06:02:18.444Z,29.53
2023-02-13T06:04:46.805Z,29.43
2023-02-13T06:07:29.844Z,30.60
2023-02-13T06:10:00.701Z,28.40
2023-02-13T06:12:28.883Z,29.73
2023-02-13T06:14:57.185Z,30.27
2023-02-13T06:17:26.992Z,31.47
2023-02-13T06:19:55.605Z,30.13
2023-02-13T06:22:23.893Z,30.50
2023-02-13T06:24:52.291Z,29.17
2023-02-13T06:27:20.535Z,29.10
2023-02-13T06:30:14.899Z,32.07
2023-02-13T06:33:55.248Z,28.63
2023-02-13T06:36:56.028Z,30.13
2023-02-13T06:39:48.628Z,29.23
2023-02-13T06:42:44.235Z,29.33
2023-02-13T06:48:50.146Z,28.43
2023-02-13T06:52:11.985Z,35.47
2023-02-13T06:55:02.059Z,30.57
2023-02-13T06:57:47.514Z,28.70
2023-02-13T07:00:28.205Z,30.00
2023-02-13T07:03:22.253Z,35.03
2023-02-13T07:06:18.824Z,30.13
2023-02-13T07:09:42.057Z,32.17
2023-02-13T07:13:05.387Z,28.20
2023-02-13T07:16:15.284Z,29.93
2023-02-13T07:26:31.637Z,35.07
2023-02-13T07:29:38.793Z,29.50
2023-02-13T07:36:11.995Z,30.60
2023-02-13T07:43:43.440Z,28.67
2023-02-13T07:46:39.163Z,33.00
2023-02-13T08:07:22.225Z,31.47
2023-02-13T08:18:18.973Z,30.63
2023-02-13T08:21:29.428Z,15.80
2023-02-13T08:52:09.348Z,30.10
2023-02-13T08:55:41.193Z,28.97
2023-02-13T08:59:41.920Z,27.50
2023-02-13T09:02:30.498Z,26.67
2023-02-13T09:09:42.629Z,27.30
2023-02-13T09:13:04.977Z,29.47
2023-02-13T09:16:11.649Z,27.93
2023-02-13T09:19:12.947Z,29.60
2023-02-13T09:22:08.111Z,28.13
2023-02-13T09:24:40.722Z,29.00
2023-02-13T09:27:20.039Z,30.30
2023-02-13T09:30:08.529Z,28.23
2023-02-13T09:32:59.062Z,28.33
2023-02-13T09:35:47.930Z,27.70
2023-02-13T09:38:42.949Z,18.27
2023-02-13T09:41:29.793Z,27.47
2023-02-13T09:44:04.865Z,25.80
2023-02-13T09:49:59.381Z,27.03
2023-02-13T09:52:38.833Z,29.10
2023-02-13T09:55:44.940Z,26.53
2023-02-13T09:58:20.844Z,27.17
2023-02-13T10:01:07.960Z,25.07
2023-02-13T10:03:47.061Z,28.47
2023-02-13T10:07:04.054Z,26.80
2023-02-13T10:13:05.497Z,28.00
2023-02-13T10:15:55.449Z,26.47
2023-02-13T10:22:10.308Z,26.03
2023-02-13T10:25:07.284Z,27.83
2023-02-13T10:28:11.117Z,26.17
2023-02-13T10:38:24.263Z,25.63
2023-02-13T10:45:47.726Z,25.43
2023-02-13T10:48:56.423Z,26.00
2023-02-13T10:51:44.129Z,25.20
2023-02-13T10:54:55.665Z,27.30
2023-02-13T10:57:53.650Z,24.20
2023-02-13T11:00:51.517Z,23.77
2023-02-13T11:03:51.672Z,23.43
2023-02-13T11:06:45.940Z,23.07
2023-02-13T11:09:34.473Z,22.73
2023-02-13T11:12:51.278Z,22.70
2023-02-13T11:15:43.808Z,23.07
2023-02-13T11:18:32.961Z,23.13
2023-02-13T11:21:22.338Z,23.67
2023-02-13T11:23:57.740Z,22.40
2023-02-13T11:26:44.199Z,24.17
2023-02-13T11:29:38.586Z,22.37
2023-02-13T11:32:35.646Z,22.07
2023-02-13T11:35:45.027Z,22.40
2023-02-13T11:38:34.208Z,21.00
2023-02-13T11:41:37.626Z,21.23
2023-02-13T11:48:27.719Z,22.23
2023-02-13T11:51:17.517Z,22.30
2023-02-13T11:54:10.369Z,21.20
2023-02-13T12:35:23.115Z,22.10
2023-02-13T12:38:16.226Z,22.67
2023-02-13T12:41:25.362Z,21.77
2023-02-13T12:45:11.020Z,21.87
2023-02-13T12:47:57.663Z,22.87
2023-02-13T12:50:43.243Z,23.03
2023-02-13T12:57:15.016Z,21.20
2023-02-13T13:00:07.253Z,21.83
2023-02-13T13:03:35.428Z,22.73
2023-02-13T13:06:28.260Z,19.60
2023-02-13T13:09:55.534Z,22.00
2023-02-13T13:12:49.889Z,21.47
2023-02-13T13:15:45.017Z,19.50
2023-02-13T13:22:04.732Z,22.33
2023-02-13T13:28:31.839Z,20.87
2023-02-13T13:31:54.679Z,21.40
2023-02-13T13:34:27.836Z,20.60
2023-02-13T13:37:17.106Z,20.13
2023-02-13T13:43:27.703Z,20.07
2023-02-13T13:53:35.497Z,19.67
2023-02-13T13:56:32.115Z,20.03
2023-02-13T13:59:35.321Z,19.17
2023-02-13T14:02:49.549Z,19.90
2023-02-13T14:06:15.929Z,18.97
2023-02-13T14:16:33.590Z,20.73
2023-02-13T14:34:17.770Z,20.03
2023-02-13T14:41:08.351Z,22.00
2023-02-13T14:46:56.789Z,22.20
2023-02-13T14:49:30.126Z,22.33
2023-02-13T14:52:04.134Z,22.60
2023-02-13T14:54:43.324Z,23.63
2023-02-13T14:57:19.979Z,23.63
2023-02-13T14:59:53.628Z,24.10
2023-02-13T15:02:25.944Z,23.87
2023-02-13T15:05:00.372Z,21.63
2023-02-13T15:07:35.082Z,23.70
2023-02-13T15:10:07.104Z,23.60
2023-02-13T15:12:37.913Z,25.43
2023-02-13T15:15:25.917Z,24.60
2023-02-13T15:17:59.708Z,23.70
2023-02-13T15:20:33.674Z,25.67
2023-02-13T15:23:23.632Z,23.33
2023-02-13T15:25:59.351Z,23.40
2023-02-13T15:28:29.098Z,23.93
2023-02-13T15:31:02.037Z,23.03
2023-02-13T15:33:34.437Z,24.93
2023-02-13T15:36:04.572Z,23.40
2023-02-13T15:38:34.990Z,25.20
2023-02-13T15:41:12.593Z,23.80
2023-02-13T15:43:45.585Z,24.87
2023-02-13T15:46:34.666Z,25.07
2023-02-13T15:52:16.791Z,23.20
2023-02-13T15:55:01.103Z,25.10
2023-02-13T15:57:30.630Z,23.97
2023-02-13T16:00:23.792Z,25.90
2023-02-13T16:10:01.312Z,23.93
2023-02-13T16:13:11.085Z,23.90
2023-02-13T16:15:51.992Z,26.07
2023-02-13T16:18:24.963Z,25.10
2023-02-13T16:20:56.634Z,26.70
2023-02-13T16:23:30.310Z,24.50
2023-02-13T16:26:05.253Z,24.73
2023-02-13T16:28:34.864Z,25.50
2023-02-13T16:31:08.056Z,27.13
2023-02-13T16:33:50.153Z,26.60
2023-02-13T16:36:27.736Z,26.47
2023-02-13T16:38:56.940Z,26.17
2023-02-13T16:41:32.785Z,26.60
2023-02-13T16:44:10.459Z,26.90
2023-02-13T16:46:43.703Z,27.47
2023-02-13T16:49:41.348Z,24.80
2023-02-13T16:52:13.478Z,25.50
2023-02-13T16:54:50.762Z,28.20
2023-02-13T16:57:26.608Z,27.23
2023-02-13T17:00:09.809Z,26.83
2023-02-13T17:02:40.107Z,26.70
2023-02-13T17:05:25.483Z,26.07
2023-02-13T17:07:57.182Z,26.03
2023-02-13T17:10:28.322Z,27.67
2023-02-13T17:13:00.676Z,26.07
2023-02-13T17:15:31.186Z,27.27
2023-02-13T17:18:03.577Z,28.10
2023-02-13T17:20:45.895Z,26.30
2023-02-13T17:23:24.267Z,25.80
2023-02-13T17:25:54.598Z,28.97
2023-02-13T17:28:25.442Z,28.90
2023-02-13T17:36:58.231Z,25.97
2023-02-13T17:39:26.708Z,29.03
2023-02-13T17:41:55.856Z,27.13
2023-02-13T17:44:27.355Z,28.67
2023-02-13T17:47:03.072Z,27.27
2023-02-13T17:50:10.598Z,30.87
2023-02-13T17:53:27.622Z,27.33
2023-02-13T17:55:57.166Z,27.40
2023-02-13T17:58:38.956Z,27.40
2023-02-13T18:01:08.065Z,26.43
2023-02-13T18:03:48.678Z,27.10
2023-02-13T18:06:18.602Z,29.30
2023-02-13T18:09:06.719Z,28.57
2023-02-13T18:11:37.451Z,27.73
2023-02-13T18:14:09.102Z,29.20
2023-02-13T18:16:44.102Z,30.37
2023-02-13T18:19:14.160Z,29.00
2023-02-13T18:21:43.252Z,29.73
2023-02-13T18:24:13.897Z,29.23
2023-02-13T18:26:42.989Z,27.47
2023-02-13T18:29:11.842Z,28.50
2023-02-13T18:31:41.422Z,26.20
2023-02-13T18:34:10.697Z,27.90
2023-02-13T18:36:39.313Z,30.40
2023-02-13T18:39:10.404Z,28.40
2023-02-13T18:41:41.887Z,29.73
2023-02-13T18:44:17.212Z,30.17
2023-02-13T18:46:48.619Z,28.67
2023-02-13T18:49:17.114Z,29.80
2023-02-13T18:51:57.892Z,29.03
2023-02-13T18:54:26.125Z,27.03
2023-02-13T18:56:55.930Z,30.67
2023-02-13T18:59:24.250Z,29.33
2023-02-13T19:01:52.901Z,30.33
2023-02-13T19:04:21.428Z,30.63
2023-02-13T19:14:49.035Z,27.37
2023-02-13T19:20:18.973Z,30.53
2023-02-13T19:22:49.442Z,29.93
2023-02-13T19:25:26.691Z,30.60
2023-02-13T19:27:57.126Z,29.40
2023-02-13T19:30:45.155Z,29.93
2023-02-13T19:33:51.867Z,30.23
2023-02-13T19:36:22.267Z,30.97
2023-02-13T19:39:11.951Z,29.90
2023-02-13T19:41:51.895Z,30.70
2023-02-13T19:45:38.774Z,31.63
2023-02-13T19:48:11.012Z,30.63
2023-02-13T19:50:40.193Z,30.33
2023-02-13T19:53:10.234Z,34.83
2023-02-13T19:55:38.814Z,30.63
2023-02-13T19:58:12.918Z,33.50
2023-02-13T20:01:13.146Z,33.77
2023-02-13T20:17:15.241Z,31.77
2023-02-13T20:23:01.243Z,30.23
2023-02-13T20:26:22.420Z,30.70
2023-02-13T20:29:02.959Z,32.07
2023-02-13T20:31:42.913Z,29.77
2023-02-13T20:35:12.481Z,32.77
2023-02-13T20:37:42.923Z,30.50
2023-02-13T20:40:16.621Z,31.63
2023-02-13T20:42:45.072Z,32.00
2023-02-13T20:45:13.605Z,30.90
2023-02-13T20:47:53.459Z,31.93
2023-02-13T20:50:48.788Z,30.27
2023-02-13T20:57:33.673Z,31.03
2023-02-13T21:00:45.460Z,31.83
2023-02-13T21:03:37.273Z,29.57
2023-02-13T21:10:33.807Z,31.63
2023-02-13T21:13:10.560Z,33.50
2023-02-13T21:15:41.497Z,23.60
2023-02-13T21:18:15.551Z,31.07
2023-02-13T21:24:42.110Z,31.43
2023-02-13T21:28:11.508Z,31.77
2023-02-13T21:30:48.329Z,32.10
2023-02-13T21:33:33.490Z,32.03
2023-02-13T21:36:08.891Z,32.67
2023-02-13T21:43:02.397Z,30.50
2023-02-13T21:45:30.893Z,31.20
2023-02-13T21:47:59.974Z,32.20
2023-02-13T21:50:31.312Z,32.27
2023-02-13T21:53:00.214Z,33.53
2023-02-13T21:55:29.574Z,32.00
2023-02-13T21:57:58.131Z,38.37
2023-02-13T22:00:28.073Z,32.33
2023-02-13T22:02:56.438Z,32.83
2023-02-13T22:05:26.079Z,33.67
2023-02-13T22:08:12.480Z,31.90
2023-02-13T22:10:42.346Z,32.03
2023-02-13T22:13:10.714Z,36.43
2023-02-13T22:15:40.450Z,32.13
2023-02-13T22:18:08.954Z,31.33
2023-02-13T22:20:37.240Z,32.07
2023-02-13T22:23:06.020Z,32.07
2023-02-13T22:25:34.418Z,33.33
2023-02-13T22:28:03.094Z,33.90
2023-02-13T22:30:31.533Z,31.77
2023-02-13T22:33:05.229Z,36.23
2023-02-13T22:35:33.396Z,31.70
2023-02-13T22:38:01.982Z,33.90
2023-02-13T22:40:30.272Z,32.83
2023-02-13T22:42:58.722Z,34.13
2023-02-13T22:45:27.025Z,33.60
2023-02-13T22:47:55.573Z,32.40
2023-02-13T22:50:25.598Z,33.97
2023-02-13T22:52:53.937Z,32.17
2023-02-13T22:55:22.124Z,31.77
2023-02-13T22:57:54.245Z,33.73
2023-02-13T23:00:23.782Z,32.80
2023-02-13T23:02:52.062Z,32.90
2023-02-13T23:05:20.257Z,33.00
2023-02-13T23:07:49.846Z,32.87
2023-02-13T23:10:19.142Z,33.43
2023-02-13T23:12:46.341Z,34.23
2023-02-13T23:15:15.891Z,33.20
2023-02-13T23:17:58.177Z,34.53
2023-02-13T23:20:27.168Z,33.17
2023-02-13T23:22:57.422Z,34.63
2023-02-13T23:25:25.809Z,32.27
2023-02-13T23:27:56.814Z,34.80
2023-02-13T23:30:26.228Z,34.10
2023-02-13T23:32:57.622Z,31.63
2023-02-13T23:35:29.280Z,32.67
2023-02-13T23:37:59.227Z,41.17
2023-02-13T23:40:27.512Z,31.77
2023-02-13T23:42:55.856Z,35.13
2023-02-13T23:45:24.211Z,30.30
2023-02-13T23:47:52.517Z,33.00
2023-02-13T23:50:20.885Z,32.43
2023-02-13T23:52:49.265Z,32.73
2023-02-13T23:55:19.064Z,36.13
